createdAt,value
2019-06-01T00:01:18.492Z,101799.28
2019-06-01T00:03:48.737Z,101800.61
2019-06-01T00:06:18.795Z,101790.47
2019-06-01T00:08:49.288Z,101795.45
2019-06-01T00:11:19.553Z,101794.00
2019-06-01T00:13:49.741Z,101792.67
2019-06-01T00:16:19.835Z,101787.64
2019-06-01T00:18:50.356Z,101791.53
2019-06-01T00:21:20.566Z,101792.81
2019-06-01T00:23:50.648Z,101782.87
2019-06-01T00:26:20.720Z,101787.02
2019-06-01T00:28:52.893Z,101788.17
2019-06-01T00:31:22.589Z,101787.41
2019-06-01T00:33:52.668Z,101785.53
2019-06-01T00:36:22.745Z,101783.98
2019-06-01T00:38:52.858Z,101780.83
2019-06-01T00:41:22.940Z,101778.89
2019-06-01T00:43:53.024Z,101780.89
2019-06-01T00:46:23.088Z,101777.05
2019-06-01T00:48:54.235Z,101774.02
2019-06-01T00:51:24.424Z,101778.00
2019-06-01T00:53:54.510Z,101776.39
2019-06-01T00:56:24.577Z,101775.73
2019-06-01T00:58:54.681Z,101782.11
2019-06-01T01:01:24.783Z,101776.14
2019-06-01T01:03:54.891Z,101780.95
2019-06-01T01:06:24.972Z,101778.30
2019-06-01T01:08:55.445Z,101782.62
2019-06-01T01:11:25.585Z,101785.69
2019-06-01T01:13:55.673Z,101784.94
2019-06-01T01:16:25.752Z,101779.69
2019-06-01T01:18:56.030Z,101788.12
2019-06-01T01:21:26.098Z,101781.49
2019-06-01T01:23:56.649Z,101786.03
2019-06-01T01:26:26.914Z,101777.09
2019-06-01T01:28:57.037Z,101781.92
2019-06-01T01:31:27.089Z,101779.69
2019-06-01T01:33:57.624Z,101774.34
2019-06-01T01:36:27.825Z,101779.20
2019-06-01T01:38:58.401Z,101778.30
2019-06-01T01:41:28.627Z,101780.53
2019-06-01T01:43:58.897Z,101776.19
2019-06-01T01:46:28.961Z,101772.73
2019-06-01T01:48:59.034Z,101769.98
2019-06-01T01:51:29.162Z,101766.28
2019-06-01T01:53:59.264Z,101762.30
2019-06-01T01:56:29.335Z,101764.27
2019-06-01T01:58:59.402Z,101754.67
2019-06-01T02:01:29.465Z,101754.72
2019-06-01T02:03:59.575Z,101756.25
2019-06-01T02:06:29.697Z,101745.66
2019-06-01T02:08:59.793Z,101746.66
2019-06-01T02:11:29.865Z,101749.89
2019-06-01T02:14:00.084Z,101745.76
2019-06-01T02:16:30.231Z,101749.20
2019-06-01T02:19:00.601Z,101750.27
2019-06-01T02:21:30.769Z,101742.96
2019-06-01T02:24:01.281Z,101740.32
2019-06-01T02:26:31.514Z,101747.06
2019-06-01T02:29:02.546Z,101748.89
2019-06-01T02:31:41.376Z,101748.89
2019-06-01T02:34:06.118Z,101744.78
2019-06-01T02:36:36.527Z,101742.60
2019-06-01T02:39:08.746Z,101741.23
2019-06-01T02:41:38.835Z,101738.09
2019-06-01T02:44:08.912Z,101741.70
2019-06-01T02:46:38.993Z,101732.78
2019-06-01T02:49:09.173Z,101730.97
2019-06-01T02:51:39.270Z,101728.25
2019-06-01T02:54:09.350Z,101736.60
2019-06-01T02:56:39.434Z,101729.97
2019-06-01T02:59:09.495Z,101717.28
2019-06-01T03:01:55.902Z,101726.98
2019-06-01T03:04:11.631Z,101720.91
2019-06-01T03:06:43.766Z,101719.26
2019-06-01T03:09:14.630Z,101720.16
2019-06-01T03:11:46.232Z,101719.14
2019-06-01T03:14:18.918Z,101721.75
2019-06-01T03:16:52.231Z,101710.17
2019-06-01T03:19:24.406Z,101711.37
2019-06-01T03:21:57.992Z,101713.98
2019-06-01T03:24:28.140Z,101712.00
2019-06-01T03:27:00.233Z,101715.50
2019-06-01T03:29:33.218Z,101713.68
2019-06-01T03:32:24.098Z,101722.39
2019-06-01T03:34:35.179Z,101727.45
2019-06-01T03:37:06.965Z,101723.80
2019-06-01T03:39:37.275Z,101729.03
2019-06-01T03:42:07.961Z,101735.02
2019-06-01T03:44:38.254Z,101727.83
2019-06-01T03:47:09.635Z,101732.11
2019-06-01T03:49:39.893Z,101729.70
2019-06-01T03:52:09.969Z,101725.27
2019-06-01T03:54:40.042Z,101722.98
2019-06-01T03:57:11.239Z,101722.80
2019-06-01T03:59:41.392Z,101724.05
2019-06-01T04:02:11.490Z,101731.41
2019-06-01T04:04:41.547Z,101731.01
2019-06-01T04:07:12.455Z,101727.44
2019-06-01T04:09:42.576Z,101729.11
2019-06-01T04:12:12.669Z,101720.12
2019-06-01T04:14:42.735Z,101724.09
2019-06-01T04:17:12.822Z,101707.23
2019-06-01T04:19:42.894Z,101717.62
2019-06-01T04:22:14.477Z,101710.84
2019-06-01T04:24:44.520Z,101714.33
2019-06-01T04:27:14.626Z,101719.95
2019-06-01T04:29:44.688Z,101720.84
2019-06-01T04:32:14.797Z,101721.17
2019-06-01T04:34:44.874Z,101714.26
2019-06-01T04:37:14.948Z,101714.87
2019-06-01T04:39:45.004Z,101715.44
2019-06-01T04:42:15.492Z,101713.83
2019-06-01T04:44:45.578Z,101707.03
2019-06-01T04:47:15.655Z,101713.03
2019-06-01T04:49:45.689Z,101711.85
2019-06-01T04:52:15.786Z,101708.95
2019-06-01T04:54:45.870Z,101710.64
2019-06-01T04:57:15.969Z,101710.99
2019-06-01T04:59:46.255Z,101712.89
2019-06-01T05:02:16.341Z,101704.34
2019-06-01T05:04:46.476Z,101705.45
2019-06-01T05:07:16.607Z,101704.95
2019-06-01T05:09:46.671Z,101703.38
2019-06-01T05:12:16.744Z,101703.57
2019-06-01T05:14:46.838Z,101707.00
2019-06-01T05:17:16.971Z,101708.23
2019-06-01T05:19:46.978Z,101707.09
2019-06-01T05:22:17.062Z,101711.34
2019-06-01T05:24:47.134Z,101709.75
2019-06-01T05:27:17.466Z,101708.97
2019-06-01T05:29:47.616Z,101707.92
2019-06-01T05:32:18.749Z,101703.64
2019-06-01T05:34:48.938Z,101707.41
2019-06-01T05:37:19.024Z,101705.75
2019-06-01T05:39:49.128Z,101711.26
2019-06-01T05:42:19.210Z,101711.91
2019-06-01T05:44:49.318Z,101706.02
2019-06-01T05:47:19.408Z,101698.88
2019-06-01T05:49:49.493Z,101704.34
2019-06-01T05:52:19.558Z,101707.59
2019-06-01T05:54:49.611Z,101703.52
2019-06-01T05:57:19.690Z,101705.50
2019-06-01T05:59:49.779Z,101703.85
2019-06-01T06:02:19.836Z,101707.64
2019-06-01T06:04:49.902Z,101705.31
2019-06-01T06:07:20.009Z,101704.05
2019-06-01T06:09:50.099Z,101702.98
2019-06-01T06:12:21.520Z,101697.06
2019-06-01T06:14:51.801Z,101696.25
2019-06-01T06:17:24.329Z,101696.44
2019-06-01T06:19:53.719Z,101696.62
2019-06-01T06:22:23.789Z,101691.70
2019-06-01T06:24:53.897Z,101681.25
2019-06-01T06:27:23.965Z,101675.57
2019-06-01T06:29:56.535Z,101673.52
2019-06-01T06:32:28.461Z,101670.79
2019-06-01T06:34:58.570Z,101663.58
2019-06-01T06:37:28.652Z,101660.84
2019-06-01T06:39:59.671Z,101675.85
2019-06-01T06:42:29.860Z,101668.36
2019-06-01T06:45:03.780Z,101665.70
2019-06-01T06:47:34.048Z,101670.06
2019-06-01T06:50:04.210Z,101669.34
2019-06-01T06:52:34.278Z,101670.41
2019-06-01T06:55:04.612Z,101680.69
2019-06-01T06:57:34.703Z,101672.36
2019-06-01T07:00:05.722Z,101674.78
2019-06-01T07:02:35.806Z,101692.10
2019-06-01T07:05:06.375Z,101683.73
2019-06-01T07:07:36.489Z,101687.98
2019-06-01T07:10:07.146Z,101686.50
2019-06-01T07:12:37.276Z,101689.30
2019-06-01T07:15:07.972Z,101692.43
2019-06-01T07:17:43.598Z,101684.80
2019-06-01T07:20:14.054Z,101680.19
2019-06-01T07:22:44.125Z,101685.73
2019-06-01T07:25:14.225Z,101686.64
2019-06-01T07:27:44.303Z,101676.63
2019-06-01T07:30:14.512Z,101674.88
2019-06-01T07:32:47.371Z,101677.92
2019-06-01T07:35:17.523Z,101675.03
2019-06-01T07:37:47.637Z,101673.31
2019-06-01T07:40:17.811Z,101689.40
2019-06-01T07:42:47.899Z,101680.32
2019-06-01T07:45:18.451Z,101696.98
2019-06-01T07:47:48.658Z,101690.30
2019-06-01T07:50:19.788Z,101696.27
2019-06-01T07:52:49.997Z,101692.19
2019-06-01T07:55:21.416Z,101678.16
2019-06-01T07:57:51.761Z,101677.77
2019-06-01T08:00:22.971Z,101678.08
2019-06-01T08:02:53.699Z,101674.42
2019-06-01T08:05:25.070Z,101679.09
2019-06-01T08:07:55.836Z,101664.48
2019-06-01T08:10:27.772Z,101679.39
2019-06-01T08:12:58.000Z,101686.89
2019-06-01T08:15:28.356Z,101685.11
2019-06-01T08:17:58.948Z,101685.70
2019-06-01T08:20:30.234Z,101682.64
2019-06-01T08:23:00.412Z,101673.97
2019-06-01T08:25:30.770Z,101684.13
2019-06-01T08:28:00.962Z,101682.64
2019-06-01T08:30:31.043Z,101690.94
2019-06-01T08:33:01.181Z,101686.09
2019-06-01T08:35:31.277Z,101684.28
2019-06-01T08:38:01.368Z,101697.20
2019-06-01T08:40:31.530Z,101686.70
2019-06-01T08:43:01.651Z,101694.05
2019-06-01T08:45:35.892Z,101690.13
2019-06-01T08:48:03.636Z,101686.25
2019-06-01T08:50:34.092Z,101690.21
2019-06-01T08:53:04.289Z,101691.34
2019-06-01T08:55:34.549Z,101688.43
2019-06-01T08:58:04.634Z,101690.49
2019-06-01T09:00:34.827Z,101697.55
2019-06-01T09:03:04.936Z,101687.53
2019-06-01T09:05:35.236Z,101686.83
2019-06-01T09:08:05.455Z,101693.92
2019-06-01T09:10:35.660Z,101682.20
2019-06-01T09:13:05.700Z,101686.06
2019-06-01T09:15:35.774Z,101679.14
2019-06-01T09:18:05.899Z,101686.15
2019-06-01T09:20:38.802Z,101683.14
2019-06-01T09:23:07.913Z,101686.39
2019-06-01T09:25:39.385Z,101688.66
2019-06-01T09:28:09.595Z,101676.65
2019-06-01T09:30:39.679Z,101677.59
2019-06-01T09:33:09.786Z,101677.73
2019-06-01T09:35:53.989Z,101677.25
2019-06-01T09:38:11.675Z,101680.67
2019-06-01T09:40:41.775Z,101678.13
2019-06-01T09:43:11.881Z,101669.62
2019-06-01T09:45:42.077Z,101679.71
2019-06-01T09:48:12.206Z,101680.87
2019-06-01T09:50:42.524Z,101673.57
2019-06-01T09:53:12.625Z,101683.63
2019-06-01T09:55:42.865Z,101672.55
2019-06-01T09:58:12.955Z,101681.51
2019-06-01T10:00:43.997Z,101678.09
2019-06-01T10:03:14.244Z,101680.28
2019-06-01T10:05:58.438Z,101681.41
2019-06-01T10:08:16.176Z,101682.66
2019-06-01T10:10:46.261Z,101670.91
2019-06-01T10:13:16.350Z,101674.30
2019-06-01T10:15:46.468Z,101673.05
2019-06-01T10:18:16.561Z,101677.81
2019-06-01T10:20:46.639Z,101677.25
2019-06-01T10:23:17.054Z,101675.76
2019-06-01T10:25:47.142Z,101671.00
2019-06-01T10:28:17.261Z,101675.71
2019-06-01T10:30:47.524Z,101684.00
2019-06-01T10:33:17.594Z,101682.48
2019-06-01T10:35:47.696Z,101679.03
2019-06-01T10:38:17.793Z,101679.91
2019-06-01T10:40:47.924Z,101677.44
2019-06-01T10:43:18.071Z,101682.10
2019-06-01T10:45:48.211Z,101679.20
2019-06-01T10:48:18.530Z,101673.78
2019-06-01T10:50:48.619Z,101679.06
2019-06-01T10:53:18.781Z,101677.75
2019-06-01T10:55:48.891Z,101686.77
2019-06-01T10:58:19.111Z,101674.50
2019-06-01T11:00:51.070Z,101682.94
2019-06-01T11:03:21.007Z,101678.55
2019-06-01T11:05:51.156Z,101679.66
2019-06-01T11:08:21.289Z,101676.00
2019-06-01T11:10:51.446Z,101673.78
2019-06-01T11:13:21.562Z,101667.06
2019-06-01T11:15:51.675Z,101658.64
2019-06-01T11:18:21.763Z,101664.94
2019-06-01T11:20:51.847Z,101664.07
2019-06-01T11:23:21.940Z,101661.34
2019-06-01T11:25:52.004Z,101668.09
2019-06-01T11:28:22.506Z,101667.40
2019-06-01T11:30:52.616Z,101658.91
2019-06-01T11:33:22.697Z,101660.02
2019-06-01T11:35:52.806Z,101657.14
2019-06-01T11:38:22.900Z,101660.22
2019-06-01T11:40:52.996Z,101654.98
2019-06-01T11:43:23.208Z,101650.45
2019-06-01T11:45:53.324Z,101650.81
2019-06-01T11:48:23.400Z,101653.56
2019-06-01T11:50:53.600Z,101658.83
2019-06-01T11:53:23.715Z,101650.87
2019-06-01T11:55:53.801Z,101652.14
2019-06-01T11:58:23.897Z,101647.72
2019-06-01T12:00:54.005Z,101648.89
2019-06-01T12:03:24.109Z,101646.80
2019-06-01T12:05:54.185Z,101651.19
2019-06-01T12:08:24.267Z,101650.42
2019-06-01T12:10:54.387Z,101643.27
2019-06-01T12:13:24.484Z,101647.42
2019-06-01T12:15:54.600Z,101636.48
2019-06-01T12:18:24.684Z,101640.08
2019-06-01T12:20:54.779Z,101636.59
2019-06-01T12:23:24.852Z,101636.69
2019-06-01T12:25:54.950Z,101640.86
2019-06-01T12:28:25.031Z,101632.52
2019-06-01T12:30:55.191Z,101634.78
2019-06-01T12:33:25.291Z,101631.66
2019-06-01T12:35:55.394Z,101630.17
2019-06-01T12:38:25.455Z,101625.09
2019-06-01T12:40:55.589Z,101623.36
2019-06-01T12:43:25.657Z,101631.31
2019-06-01T12:46:06.544Z,101628.58
2019-06-01T12:48:27.597Z,101628.97
2019-06-01T12:50:57.680Z,101622.25
2019-06-01T12:53:27.780Z,101622.59
2019-06-01T12:55:57.900Z,101618.19
2019-06-01T12:58:27.979Z,101619.28
2019-06-01T13:01:02.629Z,101620.22
2019-06-01T13:03:29.892Z,101616.12
2019-06-01T13:05:59.993Z,101620.55
2019-06-01T13:08:30.060Z,101621.58
2019-06-01T13:11:00.152Z,101618.14
2019-06-01T13:13:30.623Z,101616.59
2019-06-01T13:16:00.730Z,101611.10
2019-06-01T13:18:30.804Z,101604.75
2019-06-01T13:21:00.897Z,101602.63
2019-06-01T13:23:30.981Z,101597.30
2019-06-01T13:26:01.091Z,101606.75
2019-06-01T13:28:38.129Z,101588.56
2019-06-01T13:31:02.999Z,101591.00
2019-06-01T13:33:33.116Z,101594.92
2019-06-01T13:36:03.207Z,101596.20
2019-06-01T13:38:33.278Z,101591.94
2019-06-01T13:41:03.381Z,101593.73
2019-06-01T13:43:33.475Z,101591.05
2019-06-01T13:46:06.459Z,101587.38
2019-06-01T13:48:35.448Z,101588.91
2019-06-01T13:51:05.508Z,101587.70
2019-06-01T13:53:35.611Z,101588.98
2019-06-01T13:56:06.522Z,101595.06
2019-06-01T13:58:36.625Z,101584.60
2019-06-01T14:01:06.724Z,101583.57
2019-06-01T14:03:36.816Z,101590.05
2019-06-01T14:06:09.945Z,101591.64
2019-06-01T14:08:40.056Z,101585.29
2019-06-01T14:11:10.123Z,101580.06
2019-06-01T14:13:40.215Z,101580.56
2019-06-01T14:16:10.290Z,101592.80
2019-06-01T14:18:40.402Z,101593.45
2019-06-01T14:21:10.475Z,101592.02
2019-06-01T14:23:40.590Z,101593.09
2019-06-01T14:26:10.683Z,101598.05
2019-06-01T14:28:40.828Z,101592.20
2019-06-01T14:31:10.917Z,101598.34
2019-06-01T14:33:41.007Z,101603.63
2019-06-01T14:36:11.177Z,101603.44
2019-06-01T14:38:47.213Z,101606.15
2019-06-01T14:41:13.059Z,101606.18
2019-06-01T14:43:43.154Z,101605.30
2019-06-01T14:46:13.362Z,101608.39
2019-06-01T14:48:43.491Z,101598.98
2019-06-01T14:51:13.620Z,101603.33
2019-06-01T14:53:43.756Z,101607.47
2019-06-01T14:56:13.861Z,101615.09
2019-06-01T14:58:43.959Z,101612.48
2019-06-01T15:01:31.286Z,101618.33
2019-06-01T15:03:48.163Z,101606.72
2019-06-01T15:06:20.698Z,101602.42
2019-06-01T15:09:08.784Z,101605.29
2019-06-01T15:11:22.172Z,101597.06
2019-06-01T15:13:52.412Z,101609.29
2019-06-01T15:16:22.481Z,101606.53
2019-06-01T15:18:56.087Z,101604.24
2019-06-01T15:21:26.456Z,101607.86
2019-06-01T15:23:59.679Z,101608.81
2019-06-01T15:26:29.744Z,101612.39
2019-06-01T15:28:59.837Z,101610.05
2019-06-01T15:31:29.947Z,101613.63
2019-06-01T15:34:00.076Z,101611.14
2019-06-01T15:36:30.153Z,101606.51
2019-06-01T15:39:00.270Z,101605.80
2019-06-01T15:41:30.342Z,101603.64
2019-06-01T15:44:01.263Z,101601.50
2019-06-01T15:46:31.369Z,101604.77
2019-06-01T15:49:01.908Z,101605.79
2019-06-01T15:51:32.242Z,101598.88
2019-06-01T15:54:12.709Z,101598.98
2019-06-01T15:56:43.977Z,101593.83
2019-06-01T15:59:14.079Z,101596.73
2019-06-01T16:01:44.199Z,101594.59
2019-06-01T16:04:14.290Z,101589.62
2019-06-01T16:06:49.763Z,101593.50
2019-06-01T16:12:43.671Z,101588.60
2019-06-01T16:19:31.363Z,101581.86
2019-06-01T16:22:46.185Z,101590.09
2019-06-01T16:25:21.846Z,101590.00
2019-06-01T16:27:56.743Z,101591.05
2019-06-01T16:30:26.950Z,101587.31
2019-06-01T16:33:06.220Z,101595.94
2019-06-01T16:35:41.967Z,101598.03
2019-06-01T16:38:17.101Z,101598.11
2019-06-01T16:40:50.006Z,101602.39
2019-06-01T16:43:22.549Z,101594.48
2019-06-01T16:45:55.610Z,101592.29
2019-06-01T16:48:25.767Z,101593.71
2019-06-01T16:50:55.869Z,101593.25
2019-06-01T16:53:43.517Z,101584.98
2019-06-01T16:56:40.487Z,101598.25
2019-06-01T16:59:10.631Z,101589.61
2019-06-01T17:01:40.749Z,101587.45
2019-06-01T17:04:10.956Z,101584.98
2019-06-01T17:06:42.273Z,101583.86
2019-06-01T17:09:12.381Z,101581.12
2019-06-01T17:11:42.814Z,101579.66
2019-06-01T17:14:13.425Z,101576.82
2019-06-01T17:16:44.147Z,101579.62
2019-06-01T17:19:14.590Z,101587.23
2019-06-01T17:21:44.956Z,101586.41
2019-06-01T17:24:15.056Z,101584.71
2019-06-01T17:26:45.363Z,101595.42
2019-06-01T17:29:15.513Z,101593.44
2019-06-01T17:31:54.339Z,101586.05
2019-06-01T17:34:17.766Z,101598.12
2019-06-01T17:36:48.335Z,101587.84
2019-06-01T17:39:39.271Z,101595.72
2019-06-01T17:42:09.861Z,101592.91
2019-06-01T17:44:40.179Z,101594.84
2019-06-01T17:47:10.562Z,101589.17
2019-06-01T17:49:40.748Z,101589.98
2019-06-01T17:52:11.863Z,101593.27
2019-06-01T17:54:41.961Z,101592.03
2019-06-01T17:57:12.134Z,101600.88
2019-06-01T17:59:48.436Z,101600.48
2019-06-01T18:02:18.536Z,101607.34
2019-06-01T18:04:48.868Z,101603.88
2019-06-01T18:07:19.008Z,101607.13
2019-06-01T18:09:50.245Z,101602.66
2019-06-01T18:12:21.372Z,101603.05
2019-06-01T18:14:51.534Z,101599.59
2019-06-01T18:17:21.643Z,101596.19
2019-06-01T18:19:51.898Z,101600.91
2019-06-01T18:22:22.645Z,101592.80
2019-06-01T18:24:53.606Z,101592.95
2019-06-01T18:27:23.937Z,101595.99
2019-06-01T18:29:54.153Z,101592.44
2019-06-01T18:32:24.412Z,101593.14
2019-06-01T18:34:54.811Z,101590.13
2019-06-01T18:37:25.044Z,101594.41
2019-06-01T18:39:55.754Z,101593.45
2019-06-01T18:42:29.637Z,101588.77
2019-06-01T18:45:00.126Z,101585.65
2019-06-01T18:47:32.487Z,101585.06
2019-06-01T18:50:03.814Z,101594.91
2019-06-01T18:52:34.237Z,101595.66
2019-06-01T18:55:06.300Z,101590.61
2019-06-01T18:57:38.812Z,101593.14
2019-06-01T19:00:13.552Z,101587.80
2019-06-01T19:02:43.320Z,101589.96
2019-06-01T19:05:15.450Z,101588.23
2019-06-01T19:07:46.452Z,101595.17
2019-06-01T19:10:17.255Z,101591.91
2019-06-01T19:12:47.498Z,101589.85
2019-06-01T19:15:27.226Z,101591.45
2019-06-01T19:17:50.595Z,101591.17
2019-06-01T19:20:21.220Z,101591.98
2019-06-01T19:22:52.054Z,101583.05
2019-06-01T19:25:22.426Z,101587.50
2019-06-01T19:27:52.742Z,101575.60
2019-06-01T19:30:35.807Z,101579.59
2019-06-01T19:33:10.584Z,101582.14
2019-06-01T19:35:40.263Z,101583.00
2019-06-01T19:38:11.403Z,101590.39
2019-06-01T19:40:43.071Z,101588.52
2019-06-01T19:43:13.618Z,101593.12
2019-06-01T19:45:43.864Z,101586.56
2019-06-01T19:48:14.637Z,101590.59
2019-06-01T19:50:46.498Z,101589.75
2019-06-01T19:53:17.019Z,101582.11
2019-06-01T19:55:47.503Z,101584.62
2019-06-01T19:58:19.136Z,101586.02
2019-06-01T20:00:50.581Z,101585.32
2019-06-01T20:03:23.483Z,101597.02
2019-06-01T20:05:53.319Z,101594.31
2019-06-01T20:08:23.576Z,101593.45
2019-06-01T20:10:56.575Z,101591.82
2019-06-01T20:13:27.240Z,101594.79
2019-06-01T20:15:57.398Z,101596.36
2019-06-01T20:18:27.766Z,101600.17
2019-06-01T20:20:58.034Z,101600.17
2019-06-01T20:23:28.340Z,101601.14
2019-06-01T20:25:58.628Z,101600.83
2019-06-01T20:28:29.010Z,101599.15
2019-06-01T20:30:59.158Z,101596.14
2019-06-01T20:33:29.497Z,101599.41
2019-06-01T20:35:59.794Z,101592.72
2019-06-01T20:38:30.141Z,101593.50
2019-06-01T20:41:00.429Z,101591.42
2019-06-01T20:43:30.788Z,101591.13
2019-06-01T20:46:01.013Z,101588.89
2019-06-01T20:48:31.271Z,101591.94
2019-06-01T20:51:01.595Z,101589.16
2019-06-01T20:53:31.878Z,101595.45
2019-06-01T20:56:02.126Z,101592.17
2019-06-01T20:58:32.296Z,101590.53
2019-06-01T21:01:02.427Z,101587.52
2019-06-01T21:03:32.550Z,101581.88
2019-06-01T21:06:02.984Z,101587.33
2019-06-01T21:08:33.112Z,101579.50
2019-06-01T21:11:03.230Z,101586.32
2019-06-01T21:13:33.333Z,101586.39
2019-06-01T21:16:03.449Z,101578.18
2019-06-01T21:18:33.537Z,101581.16
2019-06-01T21:21:03.654Z,101583.61
2019-06-01T21:23:33.726Z,101584.17
2019-06-01T21:26:03.825Z,101586.56
2019-06-01T21:28:33.921Z,101586.56
2019-06-01T21:31:04.000Z,101587.09
2019-06-01T21:33:34.098Z,101589.84
2019-06-01T21:36:15.145Z,101578.52
2019-06-01T21:38:45.518Z,101587.05
2019-06-01T21:41:15.700Z,101581.18
2019-06-01T21:43:45.777Z,101585.85
2019-06-01T21:46:15.930Z,101580.73
2019-06-01T21:48:46.036Z,101583.38
2019-06-01T21:51:17.637Z,101581.83
2019-06-01T21:53:47.902Z,101581.05
2019-06-01T21:56:20.222Z,101582.95
2019-06-01T21:58:49.855Z,101579.52
2019-06-01T22:01:20.651Z,101578.14
2019-06-01T22:03:50.883Z,101575.56
2019-06-01T22:06:21.803Z,101578.99
2019-06-01T22:08:52.988Z,101570.36
2019-06-01T22:11:23.595Z,101578.06
2019-06-01T22:13:53.800Z,101582.04
2019-06-01T22:16:24.016Z,101579.63
2019-06-01T22:18:54.152Z,101574.91
2019-06-01T22:21:24.368Z,101574.25
2019-06-01T22:23:54.447Z,101567.44
2019-06-01T22:26:24.495Z,101568.16
2019-06-01T22:28:54.575Z,101573.23
2019-06-01T22:31:24.648Z,101569.26
2019-06-01T22:33:54.729Z,101571.77
2019-06-01T22:36:25.170Z,101566.66
2019-06-01T22:38:55.312Z,101562.45
2019-06-01T22:41:25.971Z,101561.67
2019-06-01T22:43:56.219Z,101561.18
2019-06-01T22:46:26.799Z,101557.62
2019-06-01T22:48:57.090Z,101553.16
2019-06-01T22:51:29.538Z,101551.53
2019-06-01T22:53:59.688Z,101554.98
2019-06-01T22:56:29.770Z,101555.36
2019-06-01T22:58:59.892Z,101556.96
2019-06-01T23:01:30.000Z,101557.38
2019-06-01T23:04:00.072Z,101558.38
2019-06-01T23:06:31.187Z,101551.55
2019-06-01T23:09:01.447Z,101556.84
2019-06-01T23:11:31.781Z,101553.77
2019-06-01T23:14:01.875Z,101549.17
2019-06-01T23:16:31.990Z,101553.89
2019-06-01T23:19:02.050Z,101555.94
2019-06-01T23:21:32.163Z,101559.22
2019-06-01T23:24:02.312Z,101562.39
2019-06-01T23:26:32.591Z,101566.55
2019-06-01T23:29:02.638Z,101557.27
2019-06-01T23:31:32.734Z,101557.85
2019-06-01T23:34:02.936Z,101558.59
2019-06-01T23:36:32.986Z,101559.50
2019-06-01T23:39:03.231Z,101556.98
2019-06-01T23:41:33.319Z,101551.53
2019-06-01T23:44:11.667Z,101540.85
2019-06-01T23:46:35.169Z,101547.25
2019-06-01T23:49:05.259Z,101541.77
2019-06-01T23:51:35.332Z,101536.78
2019-06-01T23:54:05.436Z,101539.81
2019-06-01T23:56:35.506Z,101535.42
2019-06-01T23:59:05.923Z,101534.31
